createdAt,value
2019-02-15T00:01:25.843Z,73.30
2019-02-15T00:03:53.765Z,73.10
2019-02-15T00:06:21.611Z,72.80
2019-02-15T00:08:49.273Z,72.70
2019-02-15T00:11:17.141Z,73.10
2019-02-15T00:13:44.852Z,73.80
2019-02-15T00:16:12.777Z,73.70
2019-02-15T00:18:59.989Z,74.20
2019-02-15T00:21:32.165Z,75.20
2019-02-15T00:24:00.039Z,75.10
2019-02-15T00:26:27.760Z,75.20
2019-02-15T00:28:55.462Z,75.50
2019-02-15T00:31:23.211Z,75.30
2019-02-15T00:33:50.903Z,74.80
2019-02-15T00:36:18.774Z,74.10
2019-02-15T00:38:46.554Z,73.80
2019-02-15T00:41:14.234Z,73.60
2019-02-15T00:43:41.992Z,73.50
2019-02-15T00:46:27.873Z,73.50
2019-02-15T00:48:57.892Z,73.60
2019-02-15T00:51:44.144Z,73.50
2019-02-15T00:54:35.724Z,73.40
2019-02-15T00:57:30.474Z,73.80
2019-02-15T01:00:09.311Z,74.50
2019-02-15T01:02:55.641Z,75.10
2019-02-15T01:05:42.945Z,75.70
2019-02-15T01:08:31.806Z,76.20
2019-02-15T01:11:12.354Z,76.00
2019-02-15T01:13:41.733Z,76.30
2019-02-15T01:16:09.409Z,76.70
2019-02-15T01:18:37.210Z,76.70
2019-02-15T01:21:05.182Z,76.90
2019-02-15T01:23:33.117Z,77.40
2019-02-15T01:26:10.747Z,77.40
2019-02-15T01:28:58.217Z,77.10
2019-02-15T01:31:47.688Z,77.70
2019-02-15T01:34:26.705Z,77.50
2019-02-15T01:37:08.016Z,78.10
2019-02-15T01:39:48.467Z,78.40
2019-02-15T01:42:25.256Z,79.30
2019-02-15T01:45:02.196Z,79.80
2019-02-15T01:47:35.743Z,80.00
2019-02-15T01:50:04.177Z,79.50
2019-02-15T01:52:33.293Z,79.20
2019-02-15T01:55:01.034Z,78.70
2019-02-15T01:57:29.987Z,78.20
2019-02-15T01:59:57.934Z,78.30
2019-02-15T02:02:27.954Z,79.80
2019-02-15T02:04:56.607Z,79.50
2019-02-15T02:07:24.275Z,78.80
2019-02-15T02:09:52.218Z,78.10
2019-02-15T02:12:20.070Z,78.60
2019-02-15T02:14:47.937Z,79.20
2019-02-15T02:17:15.929Z,79.70
2019-02-15T02:19:43.721Z,80.10
2019-02-15T02:22:11.573Z,80.10
2019-02-15T02:24:39.347Z,79.30
2019-02-15T02:27:07.109Z,78.60
2019-02-15T02:29:34.871Z,78.10
2019-02-15T02:32:02.729Z,78.40
2019-02-15T02:34:30.411Z,78.20
2019-02-15T02:36:58.136Z,78.00
2019-02-15T02:39:25.797Z,77.40
2019-02-15T02:41:53.548Z,77.00
2019-02-15T02:44:21.205Z,76.70
2019-02-15T02:46:49.102Z,76.60
2019-02-15T02:49:16.755Z,76.70
2019-02-15T02:51:44.381Z,77.50
2019-02-15T02:54:12.150Z,77.60
2019-02-15T02:56:39.868Z,78.00
2019-02-15T02:59:07.647Z,78.30
2019-02-15T03:01:35.412Z,78.20
2019-02-15T03:04:03.087Z,77.80
2019-02-15T03:06:30.830Z,77.50
2019-02-15T03:08:58.593Z,77.60
2019-02-15T03:11:26.348Z,77.40
2019-02-15T03:13:54.071Z,77.30
2019-02-15T03:16:21.847Z,77.20
2019-02-15T03:18:49.687Z,77.10
2019-02-15T03:21:19.341Z,77.20
2019-02-15T03:23:46.923Z,77.10
2019-02-15T03:26:14.592Z,77.70
2019-02-15T03:28:42.341Z,78.60
2019-02-15T03:31:10.029Z,79.00
2019-02-15T03:33:37.748Z,79.10
2019-02-15T03:36:05.815Z,79.30
2019-02-15T03:38:40.477Z,80.10
2019-02-15T03:41:25.476Z,82.00
2019-02-15T03:43:55.091Z,83.70
2019-02-15T03:46:22.966Z,84.70
2019-02-15T03:48:50.901Z,84.80
2019-02-15T03:51:18.475Z,84.20
2019-02-15T03:53:46.373Z,84.60
2019-02-15T03:56:14.205Z,84.90
2019-02-15T03:58:41.928Z,84.60
2019-02-15T04:01:09.794Z,84.40
2019-02-15T04:03:37.574Z,84.20
2019-02-15T04:06:05.430Z,83.30
2019-02-15T04:08:33.079Z,82.60
2019-02-15T04:11:00.997Z,82.20
2019-02-15T04:13:28.549Z,81.90
2019-02-15T04:15:56.310Z,83.00
2019-02-15T04:18:23.966Z,83.40
2019-02-15T04:20:51.817Z,82.90
2019-02-15T04:23:19.479Z,83.00
2019-02-15T04:25:47.201Z,83.00
2019-02-15T04:28:15.261Z,82.90
2019-02-15T04:30:43.110Z,82.90
2019-02-15T04:33:10.769Z,82.50
2019-02-15T04:35:38.547Z,82.30
2019-02-15T04:38:06.210Z,81.70
2019-02-15T04:40:34.064Z,81.30
2019-02-15T04:43:01.771Z,81.20
2019-02-15T04:45:29.525Z,81.40
2019-02-15T04:47:57.199Z,81.60
2019-02-15T04:50:24.868Z,81.10
2019-02-15T04:52:52.598Z,80.90
2019-02-15T04:55:20.383Z,80.70
2019-02-15T04:57:48.036Z,80.60
2019-02-15T05:00:15.711Z,80.70
2019-02-15T05:02:43.471Z,80.90
2019-02-15T05:05:11.060Z,80.90
2019-02-15T05:07:38.806Z,80.80
2019-02-15T05:10:06.511Z,80.70
2019-02-15T05:12:34.337Z,80.60
2019-02-15T05:15:02.102Z,80.70
2019-02-15T05:17:31.495Z,80.70
2019-02-15T05:19:59.314Z,82.20
2019-02-15T05:22:27.242Z,82.90
2019-02-15T05:24:54.931Z,82.30
2019-02-15T05:27:22.770Z,82.60
2019-02-15T05:29:50.447Z,82.40
2019-02-15T05:32:18.089Z,82.10
2019-02-15T05:34:45.863Z,81.90
2019-02-15T05:37:13.706Z,83.10
2019-02-15T05:39:41.530Z,83.30
2019-02-15T05:42:09.190Z,82.50
2019-02-15T05:44:37.026Z,82.10
2019-02-15T05:47:04.786Z,81.90
2019-02-15T05:49:32.518Z,82.00
2019-02-15T05:52:00.223Z,82.30
2019-02-15T05:54:28.097Z,83.20
2019-02-15T05:56:55.769Z,83.20
2019-02-15T05:59:23.515Z,83.30
2019-02-15T06:01:51.207Z,83.80
2019-02-15T06:04:19.075Z,85.30
2019-02-15T06:06:46.876Z,86.00
2019-02-15T06:09:14.759Z,85.50
2019-02-15T06:11:42.611Z,85.20
2019-02-15T06:14:10.488Z,86.20
2019-02-15T06:16:38.271Z,86.60
2019-02-15T06:19:06.040Z,86.60
2019-02-15T06:21:33.712Z,86.50
2019-02-15T06:24:02.336Z,85.80
2019-02-15T06:26:30.126Z,85.00
2019-02-15T06:28:57.872Z,84.10
2019-02-15T06:31:25.701Z,85.10
2019-02-15T06:33:53.502Z,84.30
2019-02-15T06:36:21.391Z,84.50
2019-02-15T06:38:49.364Z,84.20
2019-02-15T06:41:17.135Z,84.00
2019-02-15T06:43:44.821Z,84.00
2019-02-15T06:46:12.646Z,84.70
2019-02-15T06:48:40.314Z,84.50
2019-02-15T06:51:08.083Z,84.20
2019-02-15T06:53:35.759Z,85.00
2019-02-15T06:56:03.481Z,86.10
2019-02-15T06:58:31.869Z,87.00
2019-02-15T07:01:17.918Z,87.70
2019-02-15T07:04:18.995Z,88.00
2019-02-15T07:06:48.354Z,88.60
2019-02-15T07:09:16.039Z,88.40
2019-02-15T07:11:43.870Z,88.20
2019-02-15T07:14:11.569Z,88.90
2019-02-15T07:19:13.382Z,88.90
2019-02-15T07:21:42.157Z,89.20
2019-02-15T07:24:09.881Z,89.10
2019-02-15T07:26:37.718Z,89.00
2019-02-15T07:29:05.470Z,87.90
2019-02-15T07:31:33.135Z,87.60
2019-02-15T07:34:00.815Z,87.20
2019-02-15T07:36:28.497Z,86.90
2019-02-15T07:38:56.311Z,86.80
2019-02-15T07:41:24.497Z,86.70
2019-02-15T07:43:52.518Z,86.50
2019-02-15T07:46:20.218Z,86.80
2019-02-15T07:48:48.098Z,87.10
2019-02-15T07:51:15.825Z,88.30
2019-02-15T07:53:43.587Z,87.70
2019-02-15T07:56:11.281Z,87.20
2019-02-15T07:58:39.126Z,87.10
2019-02-15T08:01:06.848Z,87.10
2019-02-15T08:03:34.719Z,86.40
2019-02-15T08:06:02.495Z,86.40
2019-02-15T08:08:30.246Z,86.40
2019-02-15T08:10:58.010Z,86.80
2019-02-15T08:13:25.789Z,86.60
2019-02-15T08:15:53.528Z,86.90
2019-02-15T08:18:21.366Z,87.00
2019-02-15T08:20:49.132Z,87.00
2019-02-15T08:23:17.026Z,86.90
2019-02-15T08:25:44.716Z,87.30
2019-02-15T08:28:12.473Z,87.40
2019-02-15T08:30:40.180Z,87.30
2019-02-15T08:33:07.956Z,87.40
2019-02-15T08:35:36.056Z,87.60
2019-02-15T08:38:03.819Z,88.00
2019-02-15T08:40:31.775Z,87.90
2019-02-15T08:42:59.589Z,87.60
2019-02-15T08:45:27.346Z,87.10
2019-02-15T08:47:55.011Z,87.50
2019-02-15T08:50:22.810Z,87.70
2019-02-15T08:52:50.607Z,87.00
2019-02-15T08:55:18.532Z,86.70
2019-02-15T08:57:46.456Z,86.80
2019-02-15T09:00:14.423Z,87.10
2019-02-15T09:02:42.213Z,86.80
2019-02-15T09:05:10.441Z,85.70
2019-02-15T09:07:38.362Z,84.30
2019-02-15T09:10:07.873Z,83.90
2019-02-15T09:12:37.289Z,82.20
2019-02-15T09:15:07.776Z,81.80
2019-02-15T09:17:37.184Z,80.10
2019-02-15T09:20:06.595Z,78.90
2019-02-15T09:22:36.024Z,75.80
2019-02-15T09:25:04.138Z,74.80
2019-02-15T09:27:53.010Z,72.60
2019-02-15T09:30:22.309Z,71.50
2019-02-15T09:32:50.046Z,68.40
2019-02-15T09:35:17.831Z,67.90
2019-02-15T09:37:45.592Z,66.10
2019-02-15T09:40:13.398Z,64.00
2019-02-15T09:42:41.171Z,62.40
2019-02-15T09:45:10.251Z,63.00
2019-02-15T09:47:38.210Z,63.10
2019-02-15T09:50:07.589Z,58.80
2019-02-15T09:52:36.308Z,58.40
2019-02-15T09:55:04.029Z,60.90
2019-02-15T09:57:31.800Z,60.10
2019-02-15T09:59:59.578Z,61.00
2019-02-15T10:02:27.366Z,60.70
2019-02-15T10:04:55.062Z,59.60
2019-02-15T10:07:22.877Z,62.70
2019-02-15T10:09:50.530Z,64.60
2019-02-15T10:12:18.405Z,63.30
2019-02-15T10:14:46.123Z,63.70
2019-02-15T10:17:13.816Z,64.00
2019-02-15T10:19:41.574Z,65.30
2019-02-15T10:22:09.244Z,66.00
2019-02-15T10:24:37.005Z,66.00
2019-02-15T10:27:04.674Z,65.50
2019-02-15T10:29:32.440Z,66.50
2019-02-15T10:32:00.153Z,67.20
2019-02-15T10:34:28.025Z,67.90
2019-02-15T10:36:55.688Z,67.90
2019-02-15T10:39:23.512Z,67.80
2019-02-15T10:41:51.219Z,68.20
2019-02-15T10:44:19.039Z,65.60
2019-02-15T10:46:46.826Z,64.30
2019-02-15T10:49:14.709Z,63.00
2019-02-15T10:51:42.793Z,64.60
2019-02-15T10:54:10.541Z,65.10
2019-02-15T10:56:41.382Z,62.60
2019-02-15T10:59:11.117Z,62.30
2019-02-15T11:01:38.695Z,61.20
2019-02-15T11:04:06.418Z,61.00
2019-02-15T11:06:34.411Z,58.50
2019-02-15T11:09:02.194Z,59.80
2019-02-15T11:11:31.620Z,60.20
2019-02-15T11:13:59.327Z,59.60
2019-02-15T11:16:27.096Z,58.40
2019-02-15T11:18:54.698Z,57.50
2019-02-15T11:21:22.480Z,57.00
2019-02-15T11:23:50.171Z,57.00
2019-02-15T11:26:24.541Z,57.30
2019-02-15T11:28:47.410Z,57.20
2019-02-15T11:31:16.943Z,55.60
2019-02-15T11:33:44.750Z,56.40
2019-02-15T11:36:12.526Z,56.40
2019-02-15T11:38:40.200Z,55.70
2019-02-15T11:41:11.195Z,55.90
2019-02-15T11:43:37.563Z,54.40
2019-02-15T11:46:05.305Z,54.40
2019-02-15T11:48:33.020Z,54.70
2019-02-15T11:51:02.002Z,53.20
2019-02-15T11:53:29.767Z,53.60
2019-02-15T11:55:57.479Z,53.60
2019-02-15T11:58:25.253Z,52.70
2019-02-15T12:00:52.923Z,52.90
2019-02-15T12:03:20.613Z,53.60
2019-02-15T12:05:48.210Z,52.70
2019-02-15T12:08:16.071Z,53.60
2019-02-15T12:10:43.813Z,52.60
2019-02-15T12:13:11.854Z,51.30
2019-02-15T12:15:39.507Z,51.80
2019-02-15T12:18:07.309Z,51.40
2019-02-15T12:20:35.024Z,50.30
2019-02-15T12:23:02.817Z,51.40
2019-02-15T12:25:30.494Z,52.20
2019-02-15T12:27:58.456Z,52.60
2019-02-15T12:30:26.169Z,51.10
2019-02-15T12:32:53.873Z,50.70
2019-02-15T12:35:21.594Z,50.80
2019-02-15T12:37:49.410Z,51.40
2019-02-15T12:40:17.143Z,51.10
2019-02-15T12:42:44.888Z,50.10
2019-02-15T12:45:12.885Z,51.50
2019-02-15T12:47:41.558Z,49.50
2019-02-15T12:50:11.041Z,49.10
2019-02-15T12:52:40.431Z,49.00
2019-02-15T12:55:08.118Z,49.30
2019-02-15T12:57:36.027Z,49.20
2019-02-15T13:00:05.431Z,48.80
2019-02-15T13:02:34.742Z,48.60
2019-02-15T13:05:02.590Z,49.90
2019-02-15T13:07:31.875Z,48.80
2019-02-15T13:09:59.676Z,49.10
2019-02-15T13:12:27.538Z,47.10
2019-02-15T13:14:55.417Z,45.50
2019-02-15T13:17:24.978Z,45.70
2019-02-15T13:19:53.213Z,45.80
2019-02-15T13:22:20.886Z,45.50
2019-02-15T13:24:48.674Z,46.30
2019-02-15T13:27:16.356Z,44.30
2019-02-15T13:29:44.316Z,43.50
2019-02-15T13:32:12.127Z,42.90
2019-02-15T13:34:39.958Z,44.60
2019-02-15T13:37:07.701Z,43.90
2019-02-15T13:39:35.705Z,44.70
2019-02-15T13:42:03.663Z,45.20
2019-02-15T13:44:31.524Z,43.70
2019-02-15T13:46:59.321Z,43.70
2019-02-15T13:49:27.330Z,43.10
2019-02-15T13:51:55.205Z,43.00
2019-02-15T13:54:22.879Z,42.60
2019-02-15T13:56:50.627Z,42.00
2019-02-15T13:59:18.340Z,40.50
2019-02-15T14:01:46.106Z,43.00
2019-02-15T14:04:13.801Z,42.00
2019-02-15T14:06:41.659Z,39.50
2019-02-15T14:09:10.966Z,39.60
2019-02-15T14:11:39.070Z,40.40
2019-02-15T14:14:06.788Z,40.10
2019-02-15T14:19:02.451Z,40.20
2019-02-15T14:23:57.839Z,39.80
2019-02-15T14:33:49.204Z,38.10
2019-02-15T14:36:17.023Z,37.70
2019-02-15T14:38:45.003Z,39.50
2019-02-15T14:41:12.909Z,38.00
2019-02-15T14:43:40.877Z,37.10
2019-02-15T14:46:09.014Z,37.90
2019-02-15T14:48:36.913Z,39.40
2019-02-15T14:51:04.825Z,39.30
2019-02-15T14:53:32.706Z,39.00
2019-02-15T14:56:00.523Z,39.60
2019-02-15T14:58:28.441Z,39.60
2019-02-15T15:00:56.155Z,39.20
2019-02-15T15:03:24.044Z,38.80
2019-02-15T15:05:51.938Z,39.30
2019-02-15T15:08:19.632Z,36.60
2019-02-15T15:10:47.634Z,37.10
2019-02-15T15:13:15.386Z,37.30
2019-02-15T15:15:43.139Z,36.40
2019-02-15T15:18:13.500Z,36.70
2019-02-15T15:20:40.709Z,37.90
2019-02-15T15:23:08.505Z,37.60
2019-02-15T15:25:36.388Z,37.70
2019-02-15T15:28:04.088Z,36.60
2019-02-15T15:30:31.990Z,36.60
2019-02-15T15:32:59.777Z,36.90
2019-02-15T15:35:27.582Z,37.30
2019-02-15T15:37:55.156Z,37.60
2019-02-15T15:40:23.040Z,38.00
2019-02-15T15:42:50.832Z,37.70
2019-02-15T15:45:18.741Z,37.20
2019-02-15T15:47:46.513Z,37.30
2019-02-15T15:50:14.321Z,38.80
2019-02-15T15:52:42.271Z,39.50
2019-02-15T15:55:10.367Z,37.70
2019-02-15T15:57:39.052Z,39.20
2019-02-15T16:00:08.520Z,38.70
2019-02-15T16:02:37.809Z,38.50
2019-02-15T16:05:06.295Z,39.20
2019-02-15T16:07:34.587Z,38.90
2019-02-15T16:10:02.758Z,39.90
2019-02-15T16:12:32.220Z,40.60
2019-02-15T16:14:59.915Z,40.00
2019-02-15T16:17:29.203Z,40.60
2019-02-15T16:19:57.002Z,40.50
2019-02-15T16:22:26.091Z,41.10
2019-02-15T16:24:54.092Z,40.40
2019-02-15T16:27:21.874Z,41.00
2019-02-15T16:29:49.698Z,42.80
2019-02-15T16:32:17.718Z,41.60
2019-02-15T16:34:45.484Z,42.10
2019-02-15T16:37:13.267Z,41.80
2019-02-15T16:39:41.026Z,41.50
2019-02-15T16:42:09.053Z,42.00
2019-02-15T16:44:36.856Z,42.70
2019-02-15T16:47:04.673Z,42.40
2019-02-15T16:49:32.575Z,42.40
2019-02-15T16:52:00.281Z,42.20
2019-02-15T16:54:28.299Z,43.40
2019-02-15T16:56:56.173Z,43.00
2019-02-15T16:59:23.913Z,42.80
2019-02-15T17:01:51.859Z,44.50
2019-02-15T17:04:19.931Z,44.30
2019-02-15T17:06:47.835Z,44.90
2019-02-15T17:09:16.770Z,44.20
2019-02-15T17:11:44.863Z,43.90
2019-02-15T17:14:12.899Z,44.00
2019-02-15T17:16:40.811Z,44.80
2019-02-15T17:19:08.674Z,45.00
2019-02-15T17:21:36.618Z,44.30
2019-02-15T17:24:04.434Z,44.60
2019-02-15T17:26:32.233Z,44.10
2019-02-15T17:29:00.130Z,44.80
2019-02-15T17:31:28.035Z,45.30
2019-02-15T17:33:55.841Z,45.60
2019-02-15T17:36:23.729Z,45.70
2019-02-15T17:38:51.617Z,45.30
2019-02-15T17:41:19.570Z,45.10
2019-02-15T17:43:47.593Z,45.60
2019-02-15T17:46:15.283Z,45.30
2019-02-15T17:48:43.201Z,45.50
2019-02-15T17:51:10.892Z,45.30
2019-02-15T17:53:38.699Z,45.70
2019-02-15T17:56:06.554Z,45.70
2019-02-15T17:58:34.398Z,46.00
2019-02-15T18:01:02.187Z,45.60
2019-02-15T18:03:30.109Z,45.80
2019-02-15T18:05:57.905Z,46.00
2019-02-15T18:08:25.627Z,46.00
2019-02-15T18:10:53.417Z,45.80
2019-02-15T18:13:21.246Z,45.90
2019-02-15T18:15:49.259Z,45.70
2019-02-15T18:18:17.020Z,45.70
2019-02-15T18:20:44.804Z,46.00
2019-02-15T18:23:12.542Z,46.30
2019-02-15T18:25:40.385Z,46.60
2019-02-15T18:28:08.265Z,46.60
2019-02-15T18:30:36.079Z,46.70
2019-02-15T18:33:03.869Z,46.20
2019-02-15T18:35:31.659Z,46.30
2019-02-15T18:37:59.389Z,46.70
2019-02-15T18:40:27.410Z,46.60
2019-02-15T18:42:55.100Z,46.60
2019-02-15T18:45:23.089Z,46.70
2019-02-15T18:47:51.010Z,46.60
2019-02-15T18:50:18.847Z,47.10
2019-02-15T18:52:46.642Z,47.00
2019-02-15T18:55:14.322Z,47.00
2019-02-15T18:57:42.170Z,47.00
2019-02-15T19:00:12.650Z,47.30
2019-02-15T19:02:42.171Z,47.70
2019-02-15T19:05:12.073Z,48.00
2019-02-15T19:07:39.963Z,48.50
2019-02-15T19:10:09.460Z,48.60
2019-02-15T19:12:38.953Z,48.80
2019-02-15T19:15:07.745Z,49.00
2019-02-15T19:17:37.115Z,49.20
2019-02-15T19:20:05.529Z,48.90
2019-02-15T19:22:34.971Z,48.80
2019-02-15T19:25:02.743Z,48.90
2019-02-15T19:27:32.169Z,48.80
2019-02-15T19:30:00.470Z,49.20
2019-02-15T19:32:29.005Z,49.40
2019-02-15T19:34:56.900Z,49.40
2019-02-15T19:37:24.746Z,49.50
2019-02-15T19:39:52.539Z,49.60
2019-02-15T19:42:21.442Z,49.40
2019-02-15T19:44:49.412Z,49.60
2019-02-15T19:47:17.382Z,50.90
2019-02-15T19:49:45.380Z,51.30
2019-02-15T19:52:13.126Z,51.70
2019-02-15T19:54:40.957Z,51.90
2019-02-15T19:57:08.904Z,52.20
2019-02-15T19:59:36.790Z,52.30
2019-02-15T20:02:04.765Z,52.50
2019-02-15T20:04:32.761Z,51.90
2019-02-15T20:07:02.932Z,51.50
2019-02-15T20:09:31.142Z,51.40
2019-02-15T20:11:58.942Z,51.60
2019-02-15T20:14:26.745Z,51.60
2019-02-15T20:16:54.494Z,52.50
2019-02-15T20:19:22.484Z,53.10
2019-02-15T20:21:50.518Z,53.20
2019-02-15T20:24:18.338Z,53.20
2019-02-15T20:26:46.335Z,53.00
2019-02-15T20:29:14.148Z,53.30
2019-02-15T20:31:42.146Z,53.40
2019-02-15T20:34:09.867Z,53.10
2019-02-15T20:36:37.764Z,53.00
2019-02-15T20:39:05.792Z,53.00
2019-02-15T20:41:33.696Z,53.20
2019-02-15T20:44:01.504Z,53.80
2019-02-15T20:46:29.190Z,53.70
2019-02-15T20:49:04.241Z,53.90
2019-02-15T20:51:26.754Z,54.20
2019-02-15T20:53:54.582Z,54.50
2019-02-15T20:56:22.513Z,54.40
2019-02-15T20:58:50.399Z,54.10
2019-02-15T21:01:18.301Z,54.50
2019-02-15T21:03:46.018Z,55.20
2019-02-15T21:06:14.705Z,55.50
2019-02-15T21:08:42.625Z,55.80
2019-02-15T21:11:10.448Z,56.30
2019-02-15T21:13:38.488Z,56.30
2019-02-15T21:16:06.426Z,56.30
2019-02-15T21:18:34.348Z,56.00
2019-02-15T21:21:02.113Z,55.70
2019-02-15T21:23:29.924Z,55.30
2019-02-15T21:25:57.754Z,55.40
2019-02-15T21:28:25.586Z,55.70
2019-02-15T21:30:53.306Z,55.60
2019-02-15T21:33:21.191Z,56.00
2019-02-15T21:35:49.106Z,56.30
2019-02-15T21:38:16.962Z,56.50
2019-02-15T21:40:44.878Z,56.30
2019-02-15T21:43:12.703Z,56.20
2019-02-15T21:45:40.522Z,56.60
2019-02-15T21:48:08.539Z,56.80
2019-02-15T21:50:36.417Z,57.20
2019-02-15T21:53:04.364Z,57.40
2019-02-15T21:55:32.249Z,57.30
2019-02-15T21:58:01.682Z,57.80
2019-02-15T22:00:29.730Z,58.00
2019-02-15T22:02:57.634Z,58.30
2019-02-15T22:05:25.410Z,58.20
2019-02-15T22:07:53.210Z,57.90
2019-02-15T22:10:21.007Z,57.70
2019-02-15T22:12:48.923Z,57.60
2019-02-15T22:15:16.641Z,58.10
2019-02-15T22:17:44.666Z,58.00
2019-02-15T22:20:12.604Z,57.80
2019-02-15T22:22:41.388Z,58.30
2019-02-15T22:25:09.076Z,58.70
2019-02-15T22:27:36.934Z,59.20
2019-02-15T22:30:06.182Z,59.00
2019-02-15T22:32:35.613Z,58.70
2019-02-15T22:35:03.536Z,58.70
2019-02-15T22:37:32.642Z,58.80
2019-02-15T22:40:28.803Z,59.20
2019-02-15T22:43:01.170Z,59.20
2019-02-15T22:45:30.469Z,59.50
2019-02-15T22:47:58.311Z,59.90
2019-02-15T22:50:35.307Z,60.20
2019-02-15T22:52:55.975Z,60.40
2019-02-15T22:55:23.737Z,61.10
2019-02-15T22:57:51.602Z,61.60
2019-02-15T23:00:31.544Z,61.90
2019-02-15T23:03:00.922Z,61.60
2019-02-15T23:05:28.619Z,61.50
2019-02-15T23:07:56.524Z,61.60
2019-02-15T23:10:24.421Z,61.30
2019-02-15T23:12:52.468Z,61.00
2019-02-15T23:15:20.265Z,61.20
2019-02-15T23:17:48.149Z,61.50
2019-02-15T23:20:16.044Z,61.30
2019-02-15T23:22:44.042Z,61.10
2019-02-15T23:25:11.839Z,61.20
2019-02-15T23:27:39.654Z,61.30
2019-02-15T23:30:07.661Z,61.50
2019-02-15T23:32:35.532Z,61.50
2019-02-15T23:35:03.313Z,61.70
2019-02-15T23:37:31.126Z,61.40
2019-02-15T23:39:59.101Z,62.10
2019-02-15T23:42:26.906Z,62.30
2019-02-15T23:44:54.670Z,62.10
2019-02-15T23:47:22.377Z,62.50
2019-02-15T23:49:50.251Z,63.10
2019-02-15T23:52:17.969Z,63.10
2019-02-15T23:54:45.715Z,63.00
2019-02-15T23:57:13.421Z,63.70
2019-02-15T23:59:41.189Z,63.80
